sensor_id;sensor_type;location;lat;lon;timestamp;pressure;altitude;pressure_sealevel;temperature;humidity
6343;BME280;3204;42.698;23.298;2023-02-21T00:01:50;95305.47;;;6.97;58.56
6343;BME280;3204;42.698;23.298;2023-02-21T00:04:34;95302.75;;;6.97;58.82
6343;BME280;3204;42.698;23.298;2023-02-21T00:07:19;95307.25;;;7.11;58.64
6343;BME280;3204;42.698;23.298;2023-02-21T00:10:04;95304.13;;;6.94;59.13
6343;BME280;3204;42.698;23.298;2023-02-21T00:12:48;95300.84;;;7.02;58.58
6343;BME280;3204;42.698;23.298;2023-02-21T00:15:33;95296.19;;;7.13;58.06
6343;BME280;3204;42.698;23.298;2023-02-21T00:18:16;95302.19;;;7.05;58.37
6343;BME280;3204;42.698;23.298;2023-02-21T00:21:01;95300.22;;;7.15;58.09
6343;BME280;3204;42.698;23.298;2023-02-21T00:23:44;95299.78;;;6.98;59.02
6343;BME280;3204;42.698;23.298;2023-02-21T00:26:29;95298.53;;;6.81;58.86
6343;BME280;3204;42.698;23.298;2023-02-21T00:29:13;95297.72;;;6.80;58.88
6343;BME280;3204;42.698;23.298;2023-02-21T00:31:58;95284.28;;;6.70;59.49
6343;BME280;3204;42.698;23.298;2023-02-21T00:34:42;95278.09;;;6.65;59.52
6343;BME280;3204;42.698;23.298;2023-02-21T00:37:26;95284.31;;;6.65;59.48
6343;BME280;3204;42.698;23.298;2023-02-21T00:40:11;95282.69;;;6.69;59.56
6343;BME280;3204;42.698;23.298;2023-02-21T00:42:55;95290.00;;;6.54;60.45
6343;BME280;3204;42.698;23.298;2023-02-21T00:45:39;95298.06;;;6.59;60.17
6343;BME280;3204;42.698;23.298;2023-02-21T00:48:23;95274.66;;;6.49;60.21
6343;BME280;3204;42.698;23.298;2023-02-21T00:51:07;95277.97;;;6.31;61.05
6343;BME280;3204;42.698;23.298;2023-02-21T00:53:52;95268.59;;;6.09;61.39
6343;BME280;3204;42.698;23.298;2023-02-21T00:56:36;95265.91;;;5.99;62.17
6343;BME280;3204;42.698;23.298;2023-02-21T00:59:20;95265.94;;;5.94;62.53
6343;BME280;3204;42.698;23.298;2023-02-21T01:02:04;95252.47;;;5.94;62.24
6343;BME280;3204;42.698;23.298;2023-02-21T01:04:48;95246.28;;;5.98;62.56
6343;BME280;3204;42.698;23.298;2023-02-21T01:07:32;95240.34;;;5.96;62.56
6343;BME280;3204;42.698;23.298;2023-02-21T01:10:17;95233.59;;;6.04;62.50
6343;BME280;3204;42.698;23.298;2023-02-21T01:13:03;95237.88;;;6.20;61.85
6343;BME280;3204;42.698;23.298;2023-02-21T01:15:47;95233.56;;;6.24;61.42
6343;BME280;3204;42.698;23.298;2023-02-21T01:18:31;95229.81;;;6.15;61.89
6343;BME280;3204;42.698;23.298;2023-02-21T01:21:16;95217.88;;;6.36;61.52
6343;BME280;3204;42.698;23.298;2023-02-21T01:24:01;95225.44;;;6.34;61.18
6343;BME280;3204;42.698;23.298;2023-02-21T01:26:45;95224.34;;;6.35;61.35
6343;BME280;3204;42.698;23.298;2023-02-21T01:29:29;95216.75;;;6.47;61.17
6343;BME280;3204;42.698;23.298;2023-02-21T01:32:13;95225.94;;;6.41;61.21
6343;BME280;3204;42.698;23.298;2023-02-21T01:34:57;95206.63;;;6.29;61.65
6343;BME280;3204;42.698;23.298;2023-02-21T01:37:41;95216.22;;;6.45;61.22
6343;BME280;3204;42.698;23.298;2023-02-21T01:40:25;95209.44;;;6.52;61.10
6343;BME280;3204;42.698;23.298;2023-02-21T01:43:18;95218.06;;;6.54;60.61
6343;BME280;3204;42.698;23.298;2023-02-21T01:46:02;95218.34;;;6.53;60.62
6343;BME280;3204;42.698;23.298;2023-02-21T01:48:48;95220.47;;;6.56;60.85
6343;BME280;3204;42.698;23.298;2023-02-21T01:51:37;95204.53;;;6.69;60.26
6343;BME280;3204;42.698;23.298;2023-02-21T01:54:22;95206.91;;;6.71;60.25
6343;BME280;3204;42.698;23.298;2023-02-21T01:57:09;95196.78;;;6.58;60.99
6343;BME280;3204;42.698;23.298;2023-02-21T01:59:56;95193.03;;;6.49;60.88
6343;BME280;3204;42.698;23.298;2023-02-21T02:02:50;95196.81;;;6.48;60.87
6343;BME280;3204;42.698;23.298;2023-02-21T02:05:37;95181.41;;;6.53;61.25
6343;BME280;3204;42.698;23.298;2023-02-21T02:08:26;95193.22;;;6.62;60.85
6343;BME280;3204;42.698;23.298;2023-02-21T02:11:23;95184.34;;;6.62;60.94
6343;BME280;3204;42.698;23.298;2023-02-21T02:14:27;95159.25;;;6.66;60.62
6343;BME280;3204;42.698;23.298;2023-02-21T02:31:24;95168.94;;;6.67;60.62
6343;BME280;3204;42.698;23.298;2023-02-21T02:42:08;95167.31;;;6.71;60.19
6343;BME280;3204;42.698;23.298;2023-02-21T02:44:45;95163.00;;;6.70;61.12
6343;BME280;3204;42.698;23.298;2023-02-21T02:47:22;95160.63;;;6.64;60.20
6343;BME280;3204;42.698;23.298;2023-02-21T02:49:50;95156.56;;;6.66;60.84
6343;BME280;3204;42.698;23.298;2023-02-21T02:52:16;95154.09;;;6.70;60.24
6343;BME280;3204;42.698;23.298;2023-02-21T02:54:42;95165.94;;;6.74;60.33
6343;BME280;3204;42.698;23.298;2023-02-21T02:57:09;95159.78;;;6.68;60.12
6343;BME280;3204;42.698;23.298;2023-02-21T02:59:39;95163.88;;;6.61;60.50
6343;BME280;3204;42.698;23.298;2023-02-21T03:07:51;95152.75;;;6.72;60.26
6343;BME280;3204;42.698;23.298;2023-02-21T03:10:31;95151.09;;;6.76;60.34
6343;BME280;3204;42.698;23.298;2023-02-21T03:13:46;95157.06;;;6.68;59.98
6343;BME280;3204;42.698;23.298;2023-02-21T03:15:56;95151.13;;;6.71;60.70
6343;BME280;3204;42.698;23.298;2023-02-21T03:18:51;95152.31;;;6.94;59.76
6343;BME280;3204;42.698;23.298;2023-02-21T03:21:22;95154.75;;;6.95;59.34
6343;BME280;3204;42.698;23.298;2023-02-21T03:23:50;95144.50;;;6.92;59.76
6343;BME280;3204;42.698;23.298;2023-02-21T03:26:18;95154.56;;;6.82;60.25
6343;BME280;3204;42.698;23.298;2023-02-21T03:28:44;95145.16;;;6.79;60.10
6343;BME280;3204;42.698;23.298;2023-02-21T03:31:11;95139.41;;;6.91;59.88
6343;BME280;3204;42.698;23.298;2023-02-21T03:33:38;95139.47;;;6.86;59.77
6343;BME280;3204;42.698;23.298;2023-02-21T03:36:06;95137.19;;;6.64;60.08
6343;BME280;3204;42.698;23.298;2023-02-21T03:38:32;95148.72;;;6.70;60.29
6343;BME280;3204;42.698;23.298;2023-02-21T03:40:58;95138.22;;;6.68;59.90
6343;BME280;3204;42.698;23.298;2023-02-21T03:43:24;95139.56;;;6.66;60.29
6343;BME280;3204;42.698;23.298;2023-02-21T03:45:49;95140.19;;;6.58;60.63
6343;BME280;3204;42.698;23.298;2023-02-21T03:48:15;95138.50;;;6.67;60.52
6343;BME280;3204;42.698;23.298;2023-02-21T03:50:40;95150.41;;;6.56;61.21
6343;BME280;3204;42.698;23.298;2023-02-21T03:53:05;95150.69;;;6.54;60.52
6343;BME280;3204;42.698;23.298;2023-02-21T03:55:31;95155.91;;;6.41;60.98
6343;BME280;3204;42.698;23.298;2023-02-21T03:57:57;95168.06;;;6.33;62.00
6343;BME280;3204;42.698;23.298;2023-02-21T04:00:22;95161.84;;;6.33;61.61
6343;BME280;3204;42.698;23.298;2023-02-21T04:02:47;95160.03;;;6.23;61.81
6343;BME280;3204;42.698;23.298;2023-02-21T04:05:13;95161.41;;;6.21;61.83
6343;BME280;3204;42.698;23.298;2023-02-21T04:07:38;95158.22;;;6.04;62.78
6343;BME280;3204;42.698;23.298;2023-02-21T04:10:04;95155.53;;;6.04;62.69
6343;BME280;3204;42.698;23.298;2023-02-21T04:12:30;95163.34;;;6.05;62.27
6343;BME280;3204;42.698;23.298;2023-02-21T04:14:55;95153.06;;;6.17;61.77
6343;BME280;3204;42.698;23.298;2023-02-21T04:17:23;95163.91;;;5.97;62.72
6343;BME280;3204;42.698;23.298;2023-02-21T04:19:48;95164.19;;;6.01;62.84
6343;BME280;3204;42.698;23.298;2023-02-21T04:22:14;95179.25;;;5.97;62.71
6343;BME280;3204;42.698;23.298;2023-02-21T04:24:39;95170.13;;;5.93;63.12
6343;BME280;3204;42.698;23.298;2023-02-21T04:27:05;95171.69;;;6.04;63.28
6343;BME280;3204;42.698;23.298;2023-02-21T04:29:30;95184.59;;;6.07;62.73
6343;BME280;3204;42.698;23.298;2023-02-21T04:31:55;95186.47;;;6.11;62.34
6343;BME280;3204;42.698;23.298;2023-02-21T04:34:21;95195.84;;;6.29;61.84
6343;BME280;3204;42.698;23.298;2023-02-21T04:36:47;95181.84;;;6.22;61.79
6343;BME280;3204;42.698;23.298;2023-02-21T04:39:12;95194.00;;;6.09;62.07
6343;BME280;3204;42.698;23.298;2023-02-21T04:41:38;95199.13;;;6.16;62.21
6343;BME280;3204;42.698;23.298;2023-02-21T04:44:04;95187.25;;;6.17;61.99
6343;BME280;3204;42.698;23.298;2023-02-21T04:46:30;95176.16;;;6.28;61.60
6343;BME280;3204;42.698;23.298;2023-02-21T04:48:56;95183.16;;;6.29;61.38
6343;BME280;3204;42.698;23.298;2023-02-21T04:51:23;95186.69;;;6.25;61.50
6343;BME280;3204;42.698;23.298;2023-02-21T04:53:49;95170.84;;;6.18;61.75
6343;BME280;3204;42.698;23.298;2023-02-21T04:56:17;95175.06;;;6.34;60.65
6343;BME280;3204;42.698;23.298;2023-02-21T04:58:43;95164.09;;;6.16;61.61
6343;BME280;3204;42.698;23.298;2023-02-21T05:01:16;95168.38;;;6.22;61.56
6343;BME280;3204;42.698;23.298;2023-02-21T05:03:42;95162.22;;;6.11;61.62
6343;BME280;3204;42.698;23.298;2023-02-21T05:06:07;95157.16;;;6.05;62.21
6343;BME280;3204;42.698;23.298;2023-02-21T05:08:34;95147.69;;;6.17;62.15
6343;BME280;3204;42.698;23.298;2023-02-21T05:11:00;95157.28;;;6.33;60.99
6343;BME280;3204;42.698;23.298;2023-02-21T05:13:25;95157.53;;;6.37;60.72
6343;BME280;3204;42.698;23.298;2023-02-21T05:15:51;95161.13;;;6.22;61.15
6343;BME280;3204;42.698;23.298;2023-02-21T05:18:16;95151.75;;;6.10;62.24
6343;BME280;3204;42.698;23.298;2023-02-21T05:20:53;95146.66;;;6.08;62.45
6343;BME280;3204;42.698;23.298;2023-02-21T05:23:19;95150.94;;;6.09;62.02
6343;BME280;3204;42.698;23.298;2023-02-21T05:25:59;95142.03;;;6.14;62.02
6343;BME280;3204;42.698;23.298;2023-02-21T05:28:24;95137.22;;;6.06;62.61
6343;BME280;3204;42.698;23.298;2023-02-21T05:30:50;95135.63;;;6.00;62.44
6343;BME280;3204;42.698;23.298;2023-02-21T05:33:15;95141.03;;;5.95;62.74
6343;BME280;3204;42.698;23.298;2023-02-21T05:35:41;95142.09;;;5.99;63.10
6343;BME280;3204;42.698;23.298;2023-02-21T05:38:06;95146.91;;;6.07;62.37
6343;BME280;3204;42.698;23.298;2023-02-21T05:40:31;95156.91;;;5.96;63.18
6343;BME280;3204;42.698;23.298;2023-02-21T05:42:57;95160.19;;;5.88;63.59
6343;BME280;3204;42.698;23.298;2023-02-21T05:45:22;95160.09;;;6.08;63.06
6343;BME280;3204;42.698;23.298;2023-02-21T05:47:48;95164.19;;;5.96;62.71
6343;BME280;3204;42.698;23.298;2023-02-21T05:50:13;95163.59;;;6.04;62.02
6343;BME280;3204;42.698;23.298;2023-02-21T05:52:40;95167.38;;;6.03;62.30
6343;BME280;3204;42.698;23.298;2023-02-21T05:55:06;95163.09;;;5.97;62.90
6343;BME280;3204;42.698;23.298;2023-02-21T05:57:37;95170.38;;;5.96;63.11
6343;BME280;3204;42.698;23.298;2023-02-21T06:00:02;95171.38;;;6.15;62.33
6343;BME280;3204;42.698;23.298;2023-02-21T06:02:28;95185.09;;;6.24;61.77
6343;BME280;3204;42.698;23.298;2023-02-21T06:04:53;95190.47;;;6.24;61.50
6343;BME280;3204;42.698;23.298;2023-02-21T06:07:19;95178.31;;;6.75;79.85
6343;BME280;3204;42.698;23.298;2023-02-21T06:09:45;95186.44;;;7.42;68.99
6343;BME280;3204;42.698;23.298;2023-02-21T06:12:10;95192.03;;;7.22;62.42
6343;BME280;3204;42.698;23.298;2023-02-21T06:14:35;95197.47;;;7.17;60.91
6343;BME280;3204;42.698;23.298;2023-02-21T06:17:01;95190.97;;;7.18;60.53
6343;BME280;3204;42.698;23.298;2023-02-21T06:19:26;95190.03;;;6.99;60.72
6343;BME280;3204;42.698;23.298;2023-02-21T06:21:52;95200.81;;;6.99;60.44
6343;BME280;3204;42.698;23.298;2023-02-21T06:24:17;95191.13;;;6.98;60.18
6343;BME280;3204;42.698;23.298;2023-02-21T06:26:43;95183.50;;;7.10;59.76
6343;BME280;3204;42.698;23.298;2023-02-21T06:29:09;95184.06;;;7.07;59.28
6343;BME280;3204;42.698;23.298;2023-02-21T06:31:35;95190.84;;;6.99;59.64
6343;BME280;3204;42.698;23.298;2023-02-21T06:34:01;95193.22;;;7.06;59.18
6343;BME280;3204;42.698;23.298;2023-02-21T06:36:28;95192.25;;;6.92;60.21
6343;BME280;3204;42.698;23.298;2023-02-21T06:38:54;95196.50;;;6.98;60.25
6343;BME280;3204;42.698;23.298;2023-02-21T06:41:23;95194.25;;;7.15;59.38
6343;BME280;3204;42.698;23.298;2023-02-21T06:43:49;95200.72;;;7.14;59.90
6343;BME280;3204;42.698;23.298;2023-02-21T06:46:20;95192.88;;;7.17;60.05
6343;BME280;3204;42.698;23.298;2023-02-21T06:48:46;95196.09;;;7.19;59.54
6343;BME280;3204;42.698;23.298;2023-02-21T06:51:12;95202.94;;;7.40;59.37
6343;BME280;3204;42.698;23.298;2023-02-21T06:53:39;95198.84;;;7.48;58.80
6343;BME280;3204;42.698;23.298;2023-02-21T06:56:05;95195.81;;;7.54;58.96
6343;BME280;3204;42.698;23.298;2023-02-21T06:58:30;95185.34;;;7.48;59.15
6343;BME280;3204;42.698;23.298;2023-02-21T07:00:56;95193.84;;;7.60;58.90
6343;BME280;3204;42.698;23.298;2023-02-21T07:03:21;95188.94;;;7.67;58.67
6343;BME280;3204;42.698;23.298;2023-02-21T07:05:47;95198.03;;;7.76;59.30
6343;BME280;3204;42.698;23.298;2023-02-21T07:08:12;95186.44;;;7.99;58.26
6343;BME280;3204;42.698;23.298;2023-02-21T07:10:38;95190.66;;;8.33;58.04
6343;BME280;3204;42.698;23.298;2023-02-21T07:13:03;95191.00;;;8.69;57.21
6343;BME280;3204;42.698;23.298;2023-02-21T07:15:29;95198.91;;;9.21;56.17
6343;BME280;3204;42.698;23.298;2023-02-21T07:17:54;95197.88;;;9.67;53.48
6343;BME280;3204;42.698;23.298;2023-02-21T07:20:20;95195.16;;;9.99;52.98
6343;BME280;3204;42.698;23.298;2023-02-21T07:22:45;95191.75;;;9.94;51.67
6343;BME280;3204;42.698;23.298;2023-02-21T07:25:15;95189.56;;;10.09;52.00
6343;BME280;3204;42.698;23.298;2023-02-21T07:27:41;95197.03;;;10.31;50.93
6343;BME280;3204;42.698;23.298;2023-02-21T07:30:07;95181.97;;;10.52;51.08
6343;BME280;3204;42.698;23.298;2023-02-21T07:32:33;95175.91;;;10.82;50.08
6343;BME280;3204;42.698;23.298;2023-02-21T07:34:58;95177.97;;;11.34;50.01
6343;BME280;3204;42.698;23.298;2023-02-21T07:37:24;95169.72;;;11.61;48.33
6343;BME280;3204;42.698;23.298;2023-02-21T07:39:52;95163.38;;;11.96;47.88
6343;BME280;3204;42.698;23.298;2023-02-21T07:42:17;95161.31;;;12.32;46.67
6343;BME280;3204;42.698;23.298;2023-02-21T07:44:43;95163.09;;;12.36;46.28
6343;BME280;3204;42.698;23.298;2023-02-21T07:47:08;95155.69;;;12.76;45.83
6343;BME280;3204;42.698;23.298;2023-02-21T07:49:38;95154.69;;;12.55;45.23
6343;BME280;3204;42.698;23.298;2023-02-21T07:52:04;95149.59;;;12.23;45.46
6343;BME280;3204;42.698;23.298;2023-02-21T07:54:30;95163.47;;;12.13;46.00
6343;BME280;3204;42.698;23.298;2023-02-21T07:56:56;95151.66;;;12.17;45.73
6343;BME280;3204;42.698;23.298;2023-02-21T07:59:21;95154.94;;;12.06;45.81
6343;BME280;3204;42.698;23.298;2023-02-21T08:01:47;95150.88;;;11.86;46.38
6343;BME280;3204;42.698;23.298;2023-02-21T08:04:13;95152.88;;;11.72;46.98
6343;BME280;3204;42.698;23.298;2023-02-21T08:06:39;95148.56;;;11.58;47.01
6343;BME280;3204;42.698;23.298;2023-02-21T08:09:04;95151.53;;;11.48;47.18
6343;BME280;3204;42.698;23.298;2023-02-21T08:11:31;95140.38;;;11.27;47.93
6343;BME280;3204;42.698;23.298;2023-02-21T08:13:58;95136.34;;;11.25;47.62
6343;BME280;3204;42.698;23.298;2023-02-21T08:16:23;95135.13;;;11.09;48.46
6343;BME280;3204;42.698;23.298;2023-02-21T08:18:49;95149.94;;;11.03;48.86
6343;BME280;3204;42.698;23.298;2023-02-21T08:21:17;95138.59;;;11.23;48.59
6343;BME280;3204;42.698;23.298;2023-02-21T08:23:43;95137.03;;;11.08;48.68
6343;BME280;3204;42.698;23.298;2023-02-21T08:26:08;95134.09;;;10.83;48.99
6343;BME280;3204;42.698;23.298;2023-02-21T08:28:34;95149.59;;;10.69;49.11
6343;BME280;3204;42.698;23.298;2023-02-21T08:31:01;95137.00;;;10.86;48.60
6343;BME280;3204;42.698;23.298;2023-02-21T08:33:27;95139.56;;;11.05;48.67
6343;BME280;3204;42.698;23.298;2023-02-21T08:35:52;95126.22;;;10.95;48.91
6343;BME280;3204;42.698;23.298;2023-02-21T08:38:17;95130.78;;;10.86;48.95
6343;BME280;3204;42.698;23.298;2023-02-21T08:40:44;95130.50;;;10.74;48.83
6343;BME280;3204;42.698;23.298;2023-02-21T08:43:10;95139.63;;;10.78;48.86
6343;BME280;3204;42.698;23.298;2023-02-21T08:45:35;95134.59;;;11.07;48.55
6343;BME280;3204;42.698;23.298;2023-02-21T08:48:01;95133.03;;;11.28;48.00
6343;BME280;3204;42.698;23.298;2023-02-21T08:50:27;95125.97;;;11.49;47.71
6343;BME280;3204;42.698;23.298;2023-02-21T08:52:53;95130.22;;;11.85;47.46
6343;BME280;3204;42.698;23.298;2023-02-21T08:55:20;95129.03;;;12.00;46.37
6343;BME280;3204;42.698;23.298;2023-02-21T08:57:50;95119.41;;;12.33;46.11
6343;BME280;3204;42.698;23.298;2023-02-21T09:00:17;95119.63;;;12.53;46.15
6343;BME280;3204;42.698;23.298;2023-02-21T09:02:43;95112.09;;;12.59;44.99
6343;BME280;3204;42.698;23.298;2023-02-21T09:05:12;95120.13;;;12.64;44.99
6343;BME280;3204;42.698;23.298;2023-02-21T09:07:38;95122.84;;;12.64;44.97
6343;BME280;3204;42.698;23.298;2023-02-21T09:10:04;95121.13;;;12.93;44.79
6343;BME280;3204;42.698;23.298;2023-02-21T09:12:30;95110.69;;;12.87;44.45
6343;BME280;3204;42.698;23.298;2023-02-21T09:14:55;95107.72;;;13.14;44.32
6343;BME280;3204;42.698;23.298;2023-02-21T09:17:21;95104.63;;;13.66;44.27
6343;BME280;3204;42.698;23.298;2023-02-21T09:19:47;95110.38;;;14.28;42.63
6343;BME280;3204;42.698;23.298;2023-02-21T09:22:12;95114.97;;;14.94;41.97
6343;BME280;3204;42.698;23.298;2023-02-21T09:24:38;95105.53;;;15.53;40.69
6343;BME280;3204;42.698;23.298;2023-02-21T09:27:04;95098.53;;;16.20;39.14
6343;BME280;3204;42.698;23.298;2023-02-21T09:29:32;95090.13;;;16.86;38.49
6343;BME280;3204;42.698;23.298;2023-02-21T09:32:01;95092.56;;;17.66;36.58
6343;BME280;3204;42.698;23.298;2023-02-21T09:34:28;95096.06;;;17.51;36.66
6343;BME280;3204;42.698;23.298;2023-02-21T09:36:53;95098.00;;;18.21;35.51
6343;BME280;3204;42.698;23.298;2023-02-21T09:39:19;95101.03;;;18.63;34.88
6343;BME280;3204;42.698;23.298;2023-02-21T09:41:45;95091.34;;;18.84;34.02
6343;BME280;3204;42.698;23.298;2023-02-21T09:44:17;95083.78;;;18.62;34.35
6343;BME280;3204;42.698;23.298;2023-02-21T09:46:49;95081.66;;;18.56;34.03
6343;BME280;3204;42.698;23.298;2023-02-21T09:49:21;95080.91;;;18.74;33.77
6343;BME280;3204;42.698;23.298;2023-02-21T09:51:49;95075.13;;;18.79;34.31
6343;BME280;3204;42.698;23.298;2023-02-21T09:54:39;95068.47;;;19.30;33.05
6343;BME280;3204;42.698;23.298;2023-02-21T09:57:11;95068.97;;;19.93;32.64
6343;BME280;3204;42.698;23.298;2023-02-21T09:59:38;95063.38;;;19.89;32.18
6343;BME280;3204;42.698;23.298;2023-02-21T10:05:08;95058.56;;;19.45;32.60
6343;BME280;3204;42.698;23.298;2023-02-21T10:07:55;95048.63;;;19.59;31.80
6343;BME280;3204;42.698;23.298;2023-02-21T10:10:31;95042.22;;;20.12;30.80
6343;BME280;3204;42.698;23.298;2023-02-21T10:20:58;95024.16;;;20.15;30.56
6343;BME280;3204;42.698;23.298;2023-02-21T10:23:53;95022.09;;;20.31;29.15
6343;BME280;3204;42.698;23.298;2023-02-21T10:26:25;95006.78;;;20.33;28.00
6343;BME280;3204;42.698;23.298;2023-02-21T10:28:52;95020.09;;;20.31;27.10
6343;BME280;3204;42.698;23.298;2023-02-21T10:31:30;95012.34;;;20.14;26.38
6343;BME280;3204;42.698;23.298;2023-02-21T10:33:58;95013.91;;;19.93;27.23
6343;BME280;3204;42.698;23.298;2023-02-21T10:36:25;95014.31;;;19.72;27.35
6343;BME280;3204;42.698;23.298;2023-02-21T10:39:03;95005.84;;;19.62;27.30
6343;BME280;3204;42.698;23.298;2023-02-21T10:41:33;94999.13;;;19.40;27.28
6343;BME280;3204;42.698;23.298;2023-02-21T10:44:13;94999.66;;;18.92;28.08
6343;BME280;3204;42.698;23.298;2023-02-21T10:46:59;94991.34;;;18.89;28.31
6343;BME280;3204;42.698;23.298;2023-02-21T10:49:32;94998.94;;;18.61;28.37
6343;BME280;3204;42.698;23.298;2023-02-21T10:54:37;94981.59;;;18.41;27.93
6343;BME280;3204;42.698;23.298;2023-02-21T10:57:06;94978.59;;;18.15;28.57
6343;BME280;3204;42.698;23.298;2023-02-21T10:59:35;94977.16;;;18.21;28.90
6343;BME280;3204;42.698;23.298;2023-02-21T11:02:08;94964.59;;;18.05;29.14
6343;BME280;3204;42.698;23.298;2023-02-21T11:04:53;94966.81;;;18.15;28.75
6343;BME280;3204;42.698;23.298;2023-02-21T11:07:19;94954.72;;;18.00;29.00
6343;BME280;3204;42.698;23.298;2023-02-21T11:09:47;94951.97;;;18.00;29.35
6343;BME280;3204;42.698;23.298;2023-02-21T11:14:41;94946.56;;;18.04;29.32
6343;BME280;3204;42.698;23.298;2023-02-21T11:17:22;94948.13;;;18.05;29.43
6343;BME280;3204;42.698;23.298;2023-02-21T11:19:56;94935.56;;;18.19;28.73
6343;BME280;3204;42.698;23.298;2023-02-21T11:27:44;94932.25;;;18.29;28.71
6343;BME280;3204;42.698;23.298;2023-02-21T11:30:22;94918.28;;;18.34;28.62
6343;BME280;3204;42.698;23.298;2023-02-21T11:32:54;94920.28;;;18.37;28.71
6343;BME280;3204;42.698;23.298;2023-02-21T11:37:55;94912.59;;;18.27;28.96
6343;BME280;3204;42.698;23.298;2023-02-21T11:40:29;94909.69;;;18.36;28.82
6343;BME280;3204;42.698;23.298;2023-02-21T11:43:23;94910.53;;;18.40;28.64
6343;BME280;3204;42.698;23.298;2023-02-21T11:48:39;94905.47;;;18.57;28.80
6343;BME280;3204;42.698;23.298;2023-02-21T11:51:17;94895.47;;;18.49;28.99
6343;BME280;3204;42.698;23.298;2023-02-21T11:53:47;94886.88;;;18.51;29.23
6343;BME280;3204;42.698;23.298;2023-02-21T11:56:23;94889.19;;;18.68;29.07
6343;BME280;3204;42.698;23.298;2023-02-21T12:01:54;94870.59;;;18.80;28.86
6343;BME280;3204;42.698;23.298;2023-02-21T12:11:02;94850.56;;;18.80;29.01
6343;BME280;3204;42.698;23.298;2023-02-21T12:24:38;94828.66;;;18.64;29.46
6343;BME280;3204;42.698;23.298;2023-02-21T12:27:16;94816.84;;;18.83;29.38
6343;BME280;3204;42.698;23.298;2023-02-21T12:32:48;94826.47;;;18.92;29.28
6343;BME280;3204;42.698;23.298;2023-02-21T12:38:08;94805.03;;;19.01;29.08
6343;BME280;3204;42.698;23.298;2023-02-21T12:48:28;94808.69;;;19.28;29.22
6343;BME280;3204;42.698;23.298;2023-02-21T12:50:59;94792.81;;;19.21;29.25
6343;BME280;3204;42.698;23.298;2023-02-21T12:53:32;94794.88;;;19.24;29.07
6343;BME280;3204;42.698;23.298;2023-02-21T12:56:08;94798.53;;;19.32;28.92
6343;BME280;3204;42.698;23.298;2023-02-21T12:58:44;94798.28;;;19.40;28.89
6343;BME280;3204;42.698;23.298;2023-02-21T13:01:22;94788.75;;;19.57;28.76
6343;BME280;3204;42.698;23.298;2023-02-21T13:04:20;94796.63;;;19.84;28.75
6343;BME280;3204;42.698;23.298;2023-02-21T13:09:33;94793.19;;;20.46;28.09
6343;BME280;3204;42.698;23.298;2023-02-21T13:14:48;94791.47;;;20.97;27.41
6343;BME280;3204;42.698;23.298;2023-02-21T13:17:16;94785.75;;;20.80;27.30
6343;BME280;3204;42.698;23.298;2023-02-21T13:19:49;94778.47;;;20.94;27.41
6343;BME280;3204;42.698;23.298;2023-02-21T13:28:23;94781.88;;;22.18;25.72
6343;BME280;3204;42.698;23.298;2023-02-21T13:30:57;94777.63;;;22.38;25.92
6343;BME280;3204;42.698;23.298;2023-02-21T13:33:39;94779.78;;;22.69;25.44
6343;BME280;3204;42.698;23.298;2023-02-21T13:36:28;94775.16;;;23.08;24.75
6343;BME280;3204;42.698;23.298;2023-02-21T13:39:11;94767.72;;;23.37;24.71
6343;BME280;3204;42.698;23.298;2023-02-21T13:42:06;94774.06;;;23.48;24.13
6343;BME280;3204;42.698;23.298;2023-02-21T13:44:35;94768.13;;;23.39;24.31
6343;BME280;3204;42.698;23.298;2023-02-21T13:47:22;94755.47;;;23.52;24.48
6343;BME280;3204;42.698;23.298;2023-02-21T13:49:55;94749.94;;;23.73;24.15
6343;BME280;3204;42.698;23.298;2023-02-21T13:55:19;94749.00;;;22.78;24.84
6343;BME280;3204;42.698;23.298;2023-02-21T13:57:51;94746.56;;;22.62;24.72
6343;BME280;3204;42.698;23.298;2023-02-21T14:21:24;94741.75;;;21.81;24.99
6343;BME280;3204;42.698;23.298;2023-02-21T14:23:58;94754.00;;;21.80;25.07
6343;BME280;3204;42.698;23.298;2023-02-21T14:26:49;94748.25;;;21.55;24.69
6343;BME280;3204;42.698;23.298;2023-02-21T14:34:49;94744.16;;;20.92;25.53
6343;BME280;3204;42.698;23.298;2023-02-21T14:37:27;94747.97;;;21.20;25.49
6343;BME280;3204;42.698;23.298;2023-02-21T14:59:42;94730.41;;;20.99;25.38
6343;BME280;3204;42.698;23.298;2023-02-21T15:05:13;94725.03;;;20.73;25.71
6343;BME280;3204;42.698;23.298;2023-02-21T15:08:04;94718.31;;;20.74;25.46
6343;BME280;3204;42.698;23.298;2023-02-21T15:10:38;94721.00;;;20.67;25.71
6343;BME280;3204;42.698;23.298;2023-02-21T15:13:04;94718.13;;;20.56;25.52
6343;BME280;3204;42.698;23.298;2023-02-21T15:15:41;94729.16;;;20.23;25.94
6343;BME280;3204;42.698;23.298;2023-02-21T15:18:10;94726.13;;;20.06;25.97
6343;BME280;3204;42.698;23.298;2023-02-21T15:20:39;94723.19;;;19.92;26.24
6343;BME280;3204;42.698;23.298;2023-02-21T15:23:20;94727.56;;;19.67;26.68
6343;BME280;3204;42.698;23.298;2023-02-21T15:25:57;94728.34;;;19.41;26.90
6343;BME280;3204;42.698;23.298;2023-02-21T15:28:29;94726.50;;;19.23;27.21
6343;BME280;3204;42.698;23.298;2023-02-21T15:31:07;94734.84;;;19.07;27.20
6343;BME280;3204;42.698;23.298;2023-02-21T15:33:39;94728.41;;;19.00;27.45
6343;BME280;3204;42.698;23.298;2023-02-21T15:41:05;94736.81;;;18.65;27.97
6343;BME280;3204;42.698;23.298;2023-02-21T15:46:21;94743.75;;;18.37;28.00
6343;BME280;3204;42.698;23.298;2023-02-21T15:48:49;94748.91;;;18.23;28.39
6343;BME280;3204;42.698;23.298;2023-02-21T15:51:16;94745.31;;;18.19;28.46
6343;BME280;3204;42.698;23.298;2023-02-21T15:53:42;94750.72;;;17.96;28.90
6343;BME280;3204;42.698;23.298;2023-02-21T15:56:20;94752.88;;;18.06;28.91
6343;BME280;3204;42.698;23.298;2023-02-21T15:59:27;94755.81;;;17.79;28.99
6343;BME280;3204;42.698;23.298;2023-02-21T16:04:40;94746.03;;;17.62;29.36
6343;BME280;3204;42.698;23.298;2023-02-21T16:07:14;94754.38;;;17.50;29.52
6343;BME280;3204;42.698;23.298;2023-02-21T16:09:44;94752.50;;;17.39;29.72
6343;BME280;3204;42.698;23.298;2023-02-21T16:17:41;94767.03;;;17.08;29.83
6343;BME280;3204;42.698;23.298;2023-02-21T16:20:15;94770.13;;;16.91;30.23
6343;BME280;3204;42.698;23.298;2023-02-21T16:22:42;94774.97;;;16.82;30.44
6343;BME280;3204;42.698;23.298;2023-02-21T16:27:37;94761.44;;;16.58;30.90
6343;BME280;3204;42.698;23.298;2023-02-21T16:30:04;94773.50;;;16.57;31.06
6343;BME280;3204;42.698;23.298;2023-02-21T16:32:30;94776.50;;;16.52;30.99
6343;BME280;3204;42.698;23.298;2023-02-21T16:34:56;94770.16;;;16.48;30.98